Time;durP1;ratioP1;P1;durP2;ratioP2;P2;SDS_P1;SDS_P2;PMS_P1;PMS_P2;Temp;Humidity;BMP_temperature;BMP_pressure;BME280_temperature;BME280_humidity;BME280_pressure;Samples;Min_cycle;Max_cycle;Signal;HPM_P1;HPM_P2
2023/08/14 00:00:57;;;;;;;2.90;2.70;;;;;;;;;;5120756;28;20230;-63
2023/08/14 00:03:24;;;;;;;2.78;2.50;;;;;;;;;;5120611;28;20214;-63
2023/08/14 00:05:52;;;;;;;2.88;2.65;;;;;;;;;;5120344;28;20202;-63
2023/08/14 00:08:20;;;;;;;3.05;2.78;;;;;;;;;;5120864;28;20305;-63
2023/08/14 00:10:47;;;;;;;4.20;2.83;;;;;;;;;;5120678;28;20214;-63
2023/08/14 00:13:15;;;;;;;3.60;2.72;;;;;;;;;;5120455;28;20242;-63
2023/08/14 00:15:43;;;;;;;3.42;2.63;;;;;;;;;;5120334;28;20290;-63
2023/08/14 00:18:11;;;;;;;2.90;2.60;;;;;;;;;;5120510;28;20229;-63
2023/08/14 00:20:38;;;;;;;4.68;2.60;;;;;;;;;;5120407;28;20238;-63
2023/08/14 00:23:06;;;;;;;2.83;2.63;;;;;;;;;;5120632;28;20211;-63
2023/08/14 00:25:33;;;;;;;2.88;2.63;;;;;;;;;;5120210;28;20202;-63
2023/08/14 00:28:01;;;;;;;3.47;2.63;;;;;;;;;;5120181;28;20282;-62
2023/08/14 00:30:28;;;;;;;2.65;2.45;;;;;;;;;;5120163;28;20207;-63
2023/08/14 00:32:57;;;;;;;3.22;2.67;;;;;;;;;;5119850;28;20286;-63
2023/08/14 00:35:24;;;;;;;3.50;3.20;;;;;;;;;;5120110;28;20268;-63
2023/08/14 00:37:52;;;;;;;3.25;2.95;;;;;;;;;;5118571;28;20261;-62
2023/08/14 00:40:19;;;;;;;4.50;2.90;;;;;;;;;;5119892;28;20217;-63
2023/08/14 00:42:47;;;;;;;2.70;2.50;;;;;;;;;;5120235;28;20606;-63
2023/08/14 00:45:14;;;;;;;3.60;3.00;;;;;;;;;;5119502;28;20545;-63
2023/08/14 00:47:44;;;;;;;3.40;2.90;;;;;;;;;;5119804;28;20496;-62
2023/08/14 00:50:13;;;;;;;3.13;2.83;;;;;;;;;;5120285;28;20250;-62
2023/08/14 00:52:43;;;;;;;4.05;2.97;;;;;;;;;;5119551;28;20227;-62
2023/08/14 00:55:12;;;;;;;3.50;3.20;;;;;;;;;;5119841;28;20242;-63
2023/08/14 00:57:40;;;;;;;3.00;2.80;;;;;;;;;;5119512;28;20202;-63
2023/08/14 01:00:09;;;;;;;3.80;2.70;;;;;;;;;;5119765;28;20619;-63
2023/08/14 01:02:36;;;;;;;2.65;2.45;;;;;;;;;;5119164;28;20207;-63
2023/08/14 01:05:03;;;;;;;3.05;2.85;;;;;;;;;;5119907;28;20249;-64
2023/08/14 01:07:33;;;;;;;3.88;2.83;;;;;;;;;;5119261;28;20211;-63
2023/08/14 01:10:02;;;;;;;2.60;2.40;;;;;;;;;;5119111;28;20242;-63
2023/08/14 01:12:32;;;;;;;3.00;2.63;;;;;;;;;;5119336;28;20209;-63
2023/08/14 01:15:03;;;;;;;3.38;2.60;;;;;;;;;;5119347;28;20552;-62
2023/08/14 01:17:32;;;;;;;3.65;2.90;;;;;;;;;;5119325;28;20214;-63
2023/08/14 01:20:00;;;;;;;3.15;2.60;;;;;;;;;;5118577;28;20229;-63
2023/08/14 01:22:31;;;;;;;3.15;2.85;;;;;;;;;;5118939;28;20234;-62
2023/08/14 01:25:20;;;;;;;3.25;3.00;;;;;;;;;;5119405;28;20306;-63
2023/08/14 01:27:47;;;;;;;5.22;3.08;;;;;;;;;;5119294;28;20213;-63
2023/08/14 01:30:15;;;;;;;3.28;3.03;;;;;;;;;;5118897;28;20210;-63
2023/08/14 01:32:42;;;;;;;4.53;3.00;;;;;;;;;;5118577;28;20221;-63
2023/08/14 01:35:10;;;;;;;3.10;2.80;;;;;;;;;;5118600;28;20311;-63
2023/08/14 01:37:42;;;;;;;3.05;2.50;;;;;;;;;;5118809;28;20285;-63
2023/08/14 01:40:15;;;;;;;3.20;2.90;;;;;;;;;;5118447;28;20262;-63
2023/08/14 01:42:43;;;;;;;3.28;2.95;;;;;;;;;;5118483;28;20207;-63
2023/08/14 01:45:14;;;;;;;3.47;2.83;;;;;;;;;;5118865;28;20203;-63
2023/08/14 01:47:43;;;;;;;5.13;3.33;;;;;;;;;;5118607;28;20285;-63
2023/08/14 01:50:11;;;;;;;3.05;2.75;;;;;;;;;;5118221;28;20199;-63
2023/08/14 01:52:39;;;;;;;3.33;2.90;;;;;;;;;;5117751;28;20233;-63
2023/08/14 01:55:06;;;;;;;3.17;2.92;;;;;;;;;;5118261;28;20213;-63
2023/08/14 01:57:35;;;;;;;3.65;2.88;;;;;;;;;;5118202;28;20267;-63
2023/08/14 02:00:05;;;;;;;3.85;2.92;;;;;;;;;;5118348;28;20223;-63
2023/08/14 02:02:32;;;;;;;4.05;2.70;;;;;;;;;;5118409;28;20257;-62
2023/08/14 02:05:00;;;;;;;2.85;2.65;;;;;;;;;;5118682;28;20559;-63
2023/08/14 02:07:27;;;;;;;3.30;3.00;;;;;;;;;;5118291;28;20234;-63
2023/08/14 02:09:54;;;;;;;3.45;2.80;;;;;;;;;;5118449;28;20536;-63
2023/08/14 02:12:22;;;;;;;3.25;2.95;;;;;;;;;;5118509;28;20303;-63
2023/08/14 02:14:51;;;;;;;4.18;2.90;;;;;;;;;;5117794;28;20246;-63
2023/08/14 02:17:18;;;;;;;3.15;2.83;;;;;;;;;;5117706;28;20202;-63
2023/08/14 02:19:45;;;;;;;4.28;2.97;;;;;;;;;;5117923;28;20261;-63
2023/08/14 02:22:13;;;;;;;3.67;2.58;;;;;;;;;;5117522;28;20206;-63
2023/08/14 02:24:41;;;;;;;3.25;2.75;;;;;;;;;;5117985;28;20229;-63
2023/08/14 02:27:08;;;;;;;3.20;2.90;;;;;;;;;;5117320;28;20772;-63
2023/08/14 02:29:36;;;;;;;3.10;2.90;;;;;;;;;;5117340;28;20621;-63
2023/08/14 02:32:05;;;;;;;6.28;2.90;;;;;;;;;;5117610;28;20203;-63
2023/08/14 02:34:33;;;;;;;2.95;2.75;;;;;;;;;;5118195;28;20210;-63
2023/08/14 02:37:01;;;;;;;3.97;2.92;;;;;;;;;;5117430;28;20307;-63
2023/08/14 02:39:28;;;;;;;5.72;2.83;;;;;;;;;;5117362;28;20226;-63
2023/08/14 02:41:56;;;;;;;3.58;2.80;;;;;;;;;;5117690;28;20297;-63
2023/08/14 02:44:23;;;;;;;3.35;3.05;;;;;;;;;;5117761;28;20202;-63
2023/08/14 02:46:51;;;;;;;3.03;2.78;;;;;;;;;;5118149;28;20210;-63
2023/08/14 02:49:19;;;;;;;4.90;3.05;;;;;;;;;;5117605;28;20294;-63
2023/08/14 02:51:47;;;;;;;3.35;3.08;;;;;;;;;;5118045;28;20649;-62
2023/08/14 02:54:14;;;;;;;3.30;2.88;;;;;;;;;;5117628;28;20258;-63
2023/08/14 02:56:42;;;;;;;3.38;3.13;;;;;;;;;;5117923;28;20206;-63
2023/08/14 02:59:09;;;;;;;3.05;2.75;;;;;;;;;;5117517;28;20326;-63
2023/08/14 03:01:37;;;;;;;3.42;3.22;;;;;;;;;;5119793;28;20231;-63
2023/08/14 03:04:04;;;;;;;3.28;3.08;;;;;;;;;;5121851;28;20202;-63
2023/08/14 03:06:33;;;;;;;2.90;2.70;;;;;;;;;;5121659;28;20203;-63
2023/08/14 03:09:01;;;;;;;3.40;3.10;;;;;;;;;;5121391;28;20238;-63
2023/08/14 03:11:29;;;;;;;3.17;2.97;;;;;;;;;;5121766;28;20248;-63
2023/08/14 03:13:56;;;;;;;3.10;2.90;;;;;;;;;;5122185;28;20286;-63
2023/08/14 03:16:24;;;;;;;4.35;3.38;;;;;;;;;;5121160;28;20547;-63
2023/08/14 03:18:51;;;;;;;3.17;2.97;;;;;;;;;;5121149;28;20245;-63
2023/08/14 03:21:18;;;;;;;3.25;3.05;;;;;;;;;;5121406;28;20214;-63
2023/08/14 03:23:48;;;;;;;3.35;3.15;;;;;;;;;;5121184;28;20290;-62
2023/08/14 03:26:15;;;;;;;4.95;3.33;;;;;;;;;;5120975;28;20203;-63
2023/08/14 03:28:43;;;;;;;3.15;2.95;;;;;;;;;;5121254;28;20479;-63
2023/08/14 03:31:10;;;;;;;4.85;3.10;;;;;;;;;;5120884;28;20591;-63
2023/08/14 03:33:37;;;;;;;3.35;3.10;;;;;;;;;;5120905;28;20285;-63
2023/08/14 03:36:05;;;;;;;5.03;3.30;;;;;;;;;;5120490;28;20293;-63
2023/08/14 03:38:33;;;;;;;4.55;3.15;;;;;;;;;;5120631;28;20210;-63
2023/08/14 03:41:02;;;;;;;5.10;3.17;;;;;;;;;;5120798;28;20571;-63
2023/08/14 03:43:29;;;;;;;4.22;2.90;;;;;;;;;;5120970;28;20203;-63
2023/08/14 03:45:56;;;;;;;4.57;3.10;;;;;;;;;;5120857;28;20238;-63
2023/08/14 03:48:24;;;;;;;3.35;3.05;;;;;;;;;;5120110;28;20297;-63
2023/08/14 03:50:51;;;;;;;3.20;2.90;;;;;;;;;;5120589;28;20572;-63
2023/08/14 03:53:19;;;;;;;3.70;3.03;;;;;;;;;;5120260;28;20231;-63
2023/08/14 03:55:46;;;;;;;3.45;3.15;;;;;;;;;;5120128;28;20253;-63
2023/08/14 03:58:15;;;;;;;3.50;3.20;;;;;;;;;;5120757;28;20238;-63
2023/08/14 04:00:43;;;;;;;4.72;3.28;;;;;;;;;;5120503;28;20227;-63
2023/08/14 04:03:10;;;;;;;4.03;3.22;;;;;;;;;;5119878;28;20251;-63
2023/08/14 04:05:40;;;;;;;3.67;3.20;;;;;;;;;;5120200;28;20245;-63
2023/08/14 04:08:07;;;;;;;3.75;3.10;;;;;;;;;;5120256;28;20210;-63
2023/08/14 04:10:35;;;;;;;3.80;3.10;;;;;;;;;;5120170;28;20297;-63
2023/08/14 04:13:02;;;;;;;4.05;3.58;;;;;;;;;;5119780;28;20203;-63
2023/08/14 04:15:31;;;;;;;4.03;3.63;;;;;;;;;;5119578;28;20205;-63
2023/08/14 04:17:59;;;;;;;3.92;3.47;;;;;;;;;;5119751;28;20203;-63
2023/08/14 04:20:26;;;;;;;4.45;3.58;;;;;;;;;;5119500;28;20219;-63
2023/08/14 04:22:54;;;;;;;4.35;3.60;;;;;;;;;;5119923;28;20252;-63
2023/08/14 04:25:21;;;;;;;4.28;3.88;;;;;;;;;;5119591;28;20290;-63
2023/08/14 04:27:49;;;;;;;3.72;3.42;;;;;;;;;;5119507;28;20289;-63
2023/08/14 04:30:16;;;;;;;4.10;3.70;;;;;;;;;;5119637;28;20199;-63
2023/08/14 04:32:45;;;;;;;3.75;3.40;;;;;;;;;;5119241;28;20233;-63
2023/08/14 04:35:13;;;;;;;4.28;3.83;;;;;;;;;;5118667;28;20238;-63
2023/08/14 04:37:40;;;;;;;4.80;3.60;;;;;;;;;;5118794;28;20242;-63
2023/08/14 04:40:08;;;;;;;4.30;3.15;;;;;;;;;;5119152;28;20232;-63
2023/08/14 04:42:36;;;;;;;4.05;3.65;;;;;;;;;;5118935;28;20199;-63
2023/08/14 04:45:04;;;;;;;3.67;3.25;;;;;;;;;;5119127;28;20203;-63
2023/08/14 04:47:31;;;;;;;3.95;3.33;;;;;;;;;;5118734;28;20287;-63
2023/08/14 04:50:00;;;;;;;3.63;3.33;;;;;;;;;;5119181;28;20661;-63
2023/08/14 04:52:27;;;;;;;4.90;3.72;;;;;;;;;;5118544;28;20308;-64
2023/08/14 04:54:55;;;;;;;4.40;4.00;;;;;;;;;;5118419;28;20209;-63
2023/08/14 04:57:22;;;;;;;3.80;3.50;;;;;;;;;;5118368;28;20238;-63
2023/08/14 04:59:50;;;;;;;4.38;3.67;;;;;;;;;;5118603;28;20227;-63
2023/08/14 05:02:17;;;;;;;4.03;3.65;;;;;;;;;;5118735;28;20478;-63
2023/08/14 05:04:46;;;;;;;3.60;3.30;;;;;;;;;;5118928;28;20294;-63
2023/08/14 05:07:15;;;;;;;5.03;3.50;;;;;;;;;;5118590;28;20590;-63
2023/08/14 05:09:42;;;;;;;4.35;3.38;;;;;;;;;;5118444;28;20291;-63
2023/08/14 05:12:10;;;;;;;3.92;3.50;;;;;;;;;;5118008;28;20617;-63
2023/08/14 05:14:37;;;;;;;3.70;3.40;;;;;;;;;;5117891;28;20242;-63
2023/08/14 05:17:05;;;;;;;4.60;3.85;;;;;;;;;;5118491;28;20225;-62
2023/08/14 05:19:32;;;;;;;4.03;3.63;;;;;;;;;;5118017;28;20262;-63
2023/08/14 05:22:00;;;;;;;3.95;3.55;;;;;;;;;;5118636;28;20202;-63
2023/08/14 05:24:28;;;;;;;3.78;3.47;;;;;;;;;;5118162;28;20298;-63
2023/08/14 05:26:56;;;;;;;4.07;3.60;;;;;;;;;;5117859;28;20234;-63
2023/08/14 05:29:23;;;;;;;3.75;3.45;;;;;;;;;;5118035;28;20290;-63
2023/08/14 05:31:51;;;;;;;4.10;3.70;;;;;;;;;;5117322;28;20662;-63
2023/08/14 05:34:18;;;;;;;4.28;3.55;;;;;;;;;;5117621;28;20245;-63
2023/08/14 05:36:46;;;;;;;3.78;3.45;;;;;;;;;;5118190;28;20195;-63
2023/08/14 05:39:13;;;;;;;4.35;3.53;;;;;;;;;;5117560;28;20249;-63
2023/08/14 05:41:42;;;;;;;3.72;3.42;;;;;;;;;;5117385;28;20227;-63
2023/08/14 05:44:09;;;;;;;3.95;3.65;;;;;;;;;;5116959;28;20298;-62
2023/08/14 05:46:37;;;;;;;4.30;3.90;;;;;;;;;;5117855;28;20238;-63
2023/08/14 05:49:04;;;;;;;3.88;3.53;;;;;;;;;;5117405;28;20238;-63
2023/08/14 05:51:32;;;;;;;3.97;3.40;;;;;;;;;;5117593;28;20286;-63
2023/08/14 05:54:00;;;;;;;4.00;3.70;;;;;;;;;;5117160;28;20289;-63
2023/08/14 05:56:27;;;;;;;3.88;3.58;;;;;;;;;;5117298;28;20225;-63
2023/08/14 05:58:57;;;;;;;4.00;3.60;;;;;;;;;;5117147;28;20207;-63
2023/08/14 06:01:25;;;;;;;4.10;3.78;;;;;;;;;;5117275;28;20238;-63
2023/08/14 06:03:54;;;;;;;5.53;4.20;;;;;;;;;;5116264;28;20203;-63
2023/08/14 06:06:21;;;;;;;4.53;4.10;;;;;;;;;;5116868;28;20860;-63
2023/08/14 06:08:49;;;;;;;6.07;3.75;;;;;;;;;;5116478;28;20306;-63
2023/08/14 06:11:17;;;;;;;3.92;3.65;;;;;;;;;;5116717;28;20191;-63
2023/08/14 06:13:44;;;;;;;4.28;3.88;;;;;;;;;;5117097;28;20209;-63
2023/08/14 06:16:13;;;;;;;3.70;3.38;;;;;;;;;;5117098;28;20195;-63
2023/08/14 06:18:41;;;;;;;4.15;3.85;;;;;;;;;;5116059;28;20201;-63
2023/08/14 06:21:08;;;;;;;4.50;4.00;;;;;;;;;;5115368;28;20559;-62
2023/08/14 06:23:36;;;;;;;3.78;3.50;;;;;;;;;;5116124;28;20199;-62
2023/08/14 06:26:03;;;;;;;4.10;3.80;;;;;;;;;;5116560;28;20512;-62
2023/08/14 06:28:31;;;;;;;4.20;3.80;;;;;;;;;;5116306;28;20642;-63
2023/08/14 06:31:01;;;;;;;4.40;4.00;;;;;;;;;;5115793;28;20199;-63
2023/08/14 06:33:30;;;;;;;4.10;3.80;;;;;;;;;;5116647;28;20231;-62
2023/08/14 06:35:58;;;;;;;3.80;3.50;;;;;;;;;;5118390;28;20202;-63
2023/08/14 06:38:25;;;;;;;4.05;3.75;;;;;;;;;;5121107;28;20245;-63
2023/08/14 06:40:52;;;;;;;4.22;3.83;;;;;;;;;;5120562;28;20229;-63
2023/08/14 06:43:21;;;;;;;4.45;4.10;;;;;;;;;;5120905;28;20283;-63
2023/08/14 06:45:49;;;;;;;4.22;3.80;;;;;;;;;;5120656;28;20242;-62
2023/08/14 06:48:16;;;;;;;4.13;3.83;;;;;;;;;;5120678;28;20550;-62
2023/08/14 06:50:45;;;;;;;4.32;4.03;;;;;;;;;;5120295;28;20217;-62
2023/08/14 06:53:12;;;;;;;4.20;3.85;;;;;;;;;;5120643;28;20222;-62
2023/08/14 06:55:40;;;;;;;4.45;4.13;;;;;;;;;;5120447;28;20234;-63
2023/08/14 06:58:07;;;;;;;4.55;4.25;;;;;;;;;;5120899;28;20202;-62
2023/08/14 07:00:35;;;;;;;4.03;3.72;;;;;;;;;;5119656;28;20234;-63
2023/08/14 07:03:02;;;;;;;4.25;3.88;;;;;;;;;;5119795;28;20205;-63
2023/08/14 07:05:30;;;;;;;4.10;3.70;;;;;;;;;;5120264;28;20249;-63
2023/08/14 07:07:58;;;;;;;4.25;3.90;;;;;;;;;;5119644;28;20585;-63
2023/08/14 07:10:26;;;;;;;3.97;3.67;;;;;;;;;;5119754;28;20195;-63
2023/08/14 07:12:53;;;;;;;3.72;3.53;;;;;;;;;;5120216;28;20559;-62
2023/08/14 07:15:21;;;;;;;3.97;3.67;;;;;;;;;;5119447;28;20523;-62
2023/08/14 07:17:48;;;;;;;4.00;3.70;;;;;;;;;;5119210;28;20234;-63
2023/08/14 07:20:16;;;;;;;4.15;3.85;;;;;;;;;;5120418;28;20572;-63
2023/08/14 07:22:43;;;;;;;4.57;4.28;;;;;;;;;;5119202;28;20305;-63
2023/08/14 07:25:13;;;;;;;4.00;3.70;;;;;;;;;;5119693;28;20213;-63
2023/08/14 07:27:40;;;;;;;4.25;3.85;;;;;;;;;;5119159;28;20199;-63
2023/08/14 07:30:09;;;;;;;4.57;4.18;;;;;;;;;;5119678;28;20234;-63
2023/08/14 07:32:37;;;;;;;4.75;3.80;;;;;;;;;;5118649;28;20210;-63
2023/08/14 07:35:04;;;;;;;4.40;4.00;;;;;;;;;;5119376;28;20650;-63
2023/08/14 07:37:31;;;;;;;5.15;4.65;;;;;;;;;;5118777;28;20793;-62
2023/08/14 07:39:59;;;;;;;5.57;4.90;;;;;;;;;;5119678;28;20210;-63
2023/08/14 07:42:28;;;;;;;5.13;4.68;;;;;;;;;;5119165;28;20253;-62
2023/08/14 07:44:55;;;;;;;5.70;5.15;;;;;;;;;;5119076;28;20241;-62
2023/08/14 07:47:23;;;;;;;4.80;4.40;;;;;;;;;;5118713;28;20467;-62
2023/08/14 07:49:50;;;;;;;4.70;4.30;;;;;;;;;;5118239;28;20203;-63
2023/08/14 07:52:18;;;;;;;4.93;4.43;;;;;;;;;;5118850;28;20289;-63
2023/08/14 07:54:45;;;;;;;5.35;4.40;;;;;;;;;;5118836;28;20203;-63
2023/08/14 07:57:13;;;;;;;4.95;4.35;;;;;;;;;;5118341;28;20289;-63
2023/08/14 07:59:42;;;;;;;4.80;4.32;;;;;;;;;;5118658;28;20290;-63
2023/08/14 08:02:09;;;;;;;4.40;4.03;;;;;;;;;;5118472;28;20329;-63
2023/08/14 08:04:37;;;;;;;5.03;4.60;;;;;;;;;;5118760;28;20831;-63
2023/08/14 08:07:05;;;;;;;4.60;4.20;;;;;;;;;;5118537;28;20210;-62
2023/08/14 08:09:32;;;;;;;4.70;4.30;;;;;;;;;;5118667;28;20309;-62
2023/08/14 08:12:00;;;;;;;5.90;4.25;;;;;;;;;;5118529;28;20574;-63
2023/08/14 08:14:27;;;;;;;4.47;4.15;;;;;;;;;;5118963;28;20228;-62
2023/08/14 08:16:56;;;;;;;4.40;4.10;;;;;;;;;;5118033;28;20199;-62
2023/08/14 08:19:24;;;;;;;6.65;4.50;;;;;;;;;;5117887;28;20195;-62
2023/08/14 08:21:51;;;;;;;4.88;4.35;;;;;;;;;;5118511;28;20227;-63
2023/08/14 08:24:19;;;;;;;4.82;4.32;;;;;;;;;;5117549;28;20245;-63
2023/08/14 08:26:46;;;;;;;4.35;3.95;;;;;;;;;;5118379;28;20286;-62
2023/08/14 08:29:14;;;;;;;4.78;4.40;;;;;;;;;;5117313;28;20481;-62
2023/08/14 08:31:41;;;;;;;4.85;4.45;;;;;;;;;;5117100;28;20221;-63
2023/08/14 08:34:10;;;;;;;4.25;3.85;;;;;;;;;;5117415;28;20623;-63
2023/08/14 08:36:37;;;;;;;4.63;4.32;;;;;;;;;;5116954;28;20297;-63
2023/08/14 08:39:05;;;;;;;4.55;4.15;;;;;;;;;;5117174;28;20285;-63
2023/08/14 08:41:34;;;;;;;5.90;4.40;;;;;;;;;;5117204;28;20233;-63
2023/08/14 08:44:01;;;;;;;5.10;4.45;;;;;;;;;;5118210;28;20214;-62
2023/08/14 08:46:29;;;;;;;4.90;4.40;;;;;;;;;;5117630;28;20213;-62
2023/08/14 08:48:56;;;;;;;5.22;4.60;;;;;;;;;;5117183;28;20226;-63
2023/08/14 08:51:25;;;;;;;5.00;4.47;;;;;;;;;;5117202;28;20195;-63
2023/08/14 08:53:53;;;;;;;4.95;4.45;;;;;;;;;;5117395;28;20629;-63
2023/08/14 08:56:21;;;;;;;4.82;4.40;;;;;;;;;;5117255;28;20286;-63
2023/08/14 08:58:48;;;;;;;5.18;4.68;;;;;;;;;;5116533;28;20234;-63
2023/08/14 09:01:16;;;;;;;4.72;4.32;;;;;;;;;;5116315;28;20317;-63
2023/08/14 09:03:43;;;;;;;4.70;4.40;;;;;;;;;;5117052;28;20282;-63
2023/08/14 09:06:11;;;;;;;5.22;4.82;;;;;;;;;;5116190;28;20203;-63
2023/08/14 09:08:40;;;;;;;4.68;4.20;;;;;;;;;;5116185;28;20203;-63
2023/08/14 09:11:07;;;;;;;4.63;4.32;;;;;;;;;;5117545;28;20202;-63
2023/08/14 09:13:35;;;;;;;4.63;4.22;;;;;;;;;;5117302;28;20537;-63
2023/08/14 09:16:03;;;;;;;4.80;4.40;;;;;;;;;;5116451;28;20203;-63
2023/08/14 09:18:31;;;;;;;4.85;4.43;;;;;;;;;;5116210;28;20203;-63
2023/08/14 09:20:59;;;;;;;4.55;4.18;;;;;;;;;;5115991;28;20226;-63
2023/08/14 09:23:27;;;;;;;4.80;4.40;;;;;;;;;;5116570;28;20195;-63
2023/08/14 09:25:56;;;;;;;5.25;4.80;;;;;;;;;;5116398;28;20263;-63
2023/08/14 09:28:23;;;;;;;4.82;4.30;;;;;;;;;;5115770;28;20768;-63
2023/08/14 09:30:50;;;;;;;4.60;4.20;;;;;;;;;;5116934;28;20250;-63
2023/08/14 09:33:19;;;;;;;4.43;4.03;;;;;;;;;;5116520;28;20224;-63
2023/08/14 09:35:54;;;;;;;4.90;4.50;;;;;;;;;;5115266;28;20203;-63
2023/08/14 09:38:23;;;;;;;4.82;4.20;;;;;;;;;;5116521;28;20256;-63
2023/08/14 09:40:56;;;;;;;5.10;4.70;;;;;;;;;;5115892;28;20242;-63
2023/08/14 09:43:25;;;;;;;5.05;4.65;;;;;;;;;;5115524;28;20203;-63
2023/08/14 09:45:53;;;;;;;5.22;4.72;;;;;;;;;;5116271;28;20211;-63
2023/08/14 09:48:21;;;;;;;5.47;4.97;;;;;;;;;;5116131;28;20501;-63
2023/08/14 09:50:50;;;;;;;5.22;4.72;;;;;;;;;;5115949;28;20203;-63
2023/08/14 09:53:17;;;;;;;5.75;4.70;;;;;;;;;;5115398;28;20230;-63
2023/08/14 09:55:45;;;;;;;4.90;4.50;;;;;;;;;;5115863;28;20294;-63
2023/08/14 09:58:12;;;;;;;4.72;4.32;;;;;;;;;;5115943;28;20202;-63
2023/08/14 10:00:41;;;;;;;4.38;3.97;;;;;;;;;;5114803;28;20206;-63
2023/08/14 10:03:09;;;;;;;4.88;4.38;;;;;;;;;;5115849;28;20563;-63
2023/08/14 10:05:38;;;;;;;5.30;4.80;;;;;;;;;;5115318;28;20203;-63
2023/08/14 10:08:08;;;;;;;5.07;4.70;;;;;;;;;;5115550;28;20210;-63
2023/08/14 10:10:37;;;;;;;5.30;4.85;;;;;;;;;;5115280;28;20461;-63
2023/08/14 10:13:06;;;;;;;5.22;4.82;;;;;;;;;;5115288;28;20195;-63
2023/08/14 10:15:36;;;;;;;5.35;4.50;;;;;;;;;;5115406;28;20199;-63
2023/08/14 10:18:07;;;;;;;4.95;4.55;;;;;;;;;;5115276;28;20290;-63
2023/08/14 10:20:36;;;;;;;5.15;4.75;;;;;;;;;;5114867;28;20702;-63
2023/08/14 10:23:04;;;;;;;5.10;4.70;;;;;;;;;;5114817;28;20510;-63
2023/08/14 10:25:32;;;;;;;5.10;4.70;;;;;;;;;;5115331;28;20211;-63
2023/08/14 10:27:59;;;;;;;4.90;4.50;;;;;;;;;;5115749;28;20198;-63
2023/08/14 10:30:27;;;;;;;4.88;4.47;;;;;;;;;;5115455;28;20218;-63
2023/08/14 10:32:55;;;;;;;4.68;4.28;;;;;;;;;;5115260;28;20207;-63
2023/08/14 10:35:25;;;;;;;4.88;4.38;;;;;;;;;;5114290;28;20199;-63
2023/08/14 10:37:53;;;;;;;4.75;4.43;;;;;;;;;;5115554;28;20476;-64
2023/08/14 10:40:22;;;;;;;4.80;4.50;;;;;;;;;;5115299;28;20268;-63
2023/08/14 10:42:52;;;;;;;5.22;4.72;;;;;;;;;;5114904;28;20218;-63
2023/08/14 10:45:20;;;;;;;5.70;4.88;;;;;;;;;;5115801;28;20199;-63
2023/08/14 10:47:47;;;;;;;4.78;4.38;;;;;;;;;;5115327;28;20302;-63
2023/08/14 10:50:15;;;;;;;5.20;4.70;;;;;;;;;;5115025;28;20313;-63
2023/08/14 10:52:45;;;;;;;4.65;4.35;;;;;;;;;;5114985;28;20241;-63
2023/08/14 10:55:17;;;;;;;5.20;4.70;;;;;;;;;;5114485;28;20286;-63
2023/08/14 10:57:46;;;;;;;5.43;4.70;;;;;;;;;;5114826;28;20214;-63
2023/08/14 11:00:23;;;;;;;5.20;4.80;;;;;;;;;;5115049;28;20199;-63
2023/08/14 11:02:51;;;;;;;5.28;4.88;;;;;;;;;;5114534;28;20749;-63
2023/08/14 11:05:18;;;;;;;5.43;5.03;;;;;;;;;;5115429;28;20202;-63
2023/08/14 11:07:58;;;;;;;5.68;5.10;;;;;;;;;;5114903;28;20593;-63
2023/08/14 11:10:27;;;;;;;5.20;4.80;;;;;;;;;;5114938;28;20566;-63
2023/08/14 11:12:55;;;;;;;5.28;4.78;;;;;;;;;;5114366;28;20230;-63
2023/08/14 11:15:23;;;;;;;5.47;4.97;;;;;;;;;;5114895;28;20200;-63
2023/08/14 11:17:50;;;;;;;4.60;4.30;;;;;;;;;;5114134;28;20195;-63
2023/08/14 11:20:18;;;;;;;4.68;4.28;;;;;;;;;;5115017;28;20594;-63
2023/08/14 11:22:46;;;;;;;4.70;4.32;;;;;;;;;;5116943;28;20763;-62
2023/08/14 11:25:18;;;;;;;4.88;4.57;;;;;;;;;;5119152;28;20198;-63
2023/08/14 11:27:49;;;;;;;5.18;4.78;;;;;;;;;;5118895;28;20586;-63
2023/08/14 11:30:17;;;;;;;4.63;4.32;;;;;;;;;;5118612;28;20209;-63
2023/08/14 11:32:44;;;;;;;5.30;4.90;;;;;;;;;;5118537;28;20536;-63
2023/08/14 11:35:12;;;;;;;5.05;4.70;;;;;;;;;;5117989;28;20562;-63
2023/08/14 11:37:40;;;;;;;4.90;4.50;;;;;;;;;;5117838;28;20721;-63
2023/08/14 11:40:09;;;;;;;5.03;4.65;;;;;;;;;;5117871;28;20210;-63
2023/08/14 11:42:38;;;;;;;5.03;4.63;;;;;;;;;;5118310;28;20325;-63
2023/08/14 11:45:06;;;;;;;4.53;4.22;;;;;;;;;;5117285;28;20828;-63
2023/08/14 11:47:34;;;;;;;4.53;4.18;;;;;;;;;;5118110;28;20257;-63
2023/08/14 11:50:02;;;;;;;4.68;4.38;;;;;;;;;;5118167;28;20202;-63
2023/08/14 11:52:30;;;;;;;5.07;4.68;;;;;;;;;;5117893;28;20233;-63
2023/08/14 11:54:58;;;;;;;4.90;4.50;;;;;;;;;;5117869;28;20620;-63
2023/08/14 11:57:26;;;;;;;4.80;4.50;;;;;;;;;;5117256;28;20202;-63
2023/08/14 11:59:57;;;;;;;4.90;4.50;;;;;;;;;;5117564;28;20297;-63
2023/08/14 12:02:24;;;;;;;5.03;4.63;;;;;;;;;;5116841;28;20317;-63
2023/08/14 12:04:53;;;;;;;4.88;4.47;;;;;;;;;;5117012;28;20210;-63
2023/08/14 12:07:21;;;;;;;4.65;4.35;;;;;;;;;;5117450;28;20354;-63
2023/08/14 12:09:49;;;;;;;5.05;4.65;;;;;;;;;;5118055;28;20238;-63
2023/08/14 12:12:16;;;;;;;4.68;4.38;;;;;;;;;;5118227;28;20199;-63
2023/08/14 12:14:45;;;;;;;5.03;4.53;;;;;;;;;;5118024;28;20302;-63
2023/08/14 12:17:15;;;;;;;4.25;3.95;;;;;;;;;;5117732;28;20581;-63
2023/08/14 12:19:43;;;;;;;4.68;4.28;;;;;;;;;;5117980;28;20211;-63
2023/08/14 12:22:11;;;;;;;4.53;4.22;;;;;;;;;;5116056;28;20225;-63
2023/08/14 12:24:39;;;;;;;4.63;4.22;;;;;;;;;;5117249;28;20203;-63
2023/08/14 12:27:14;;;;;;;4.57;4.18;;;;;;;;;;5115572;28;20214;-63
2023/08/14 12:29:42;;;;;;;4.47;4.18;;;;;;;;;;5116332;28;20202;-63
2023/08/14 12:32:09;;;;;;;4.97;4.22;;;;;;;;;;5117502;28;20195;-63
2023/08/14 12:34:38;;;;;;;4.15;3.85;;;;;;;;;;5117208;28;20198;-63
2023/08/14 12:37:06;;;;;;;4.15;3.85;;;;;;;;;;5116188;28;20242;-62
2023/08/14 12:39:34;;;;;;;4.68;4.38;;;;;;;;;;5116602;28;20737;-62
2023/08/14 12:42:01;;;;;;;4.00;3.80;;;;;;;;;;5116595;28;20262;-65
2023/08/14 12:44:30;;;;;;;4.18;3.88;;;;;;;;;;5116525;28;20565;-65
2023/08/14 12:46:57;;;;;;;4.30;4.00;;;;;;;;;;5116255;28;20315;-65
2023/08/14 12:49:25;;;;;;;4.00;3.70;;;;;;;;;;5116969;28;20575;-65
2023/08/14 12:51:54;;;;;;;4.30;4.00;;;;;;;;;;5115658;28;20238;-63
2023/08/14 12:54:21;;;;;;;4.20;3.90;;;;;;;;;;5116234;28;20787;-63
2023/08/14 12:56:49;;;;;;;4.40;4.00;;;;;;;;;;5115883;28;20218;-65
2023/08/14 12:59:16;;;;;;;4.50;3.97;;;;;;;;;;5115977;28;20203;-65
2023/08/14 13:01:44;;;;;;;4.10;3.80;;;;;;;;;;5116135;28;20203;-65
2023/08/14 13:04:11;;;;;;;4.47;4.13;;;;;;;;;;5115673;28;20203;-65
2023/08/14 13:06:39;;;;;;;3.75;3.45;;;;;;;;;;5117107;28;20294;-65
2023/08/14 13:09:08;;;;;;;4.43;4.13;;;;;;;;;;5116091;28;20232;-66
2023/08/14 13:11:35;;;;;;;4.03;3.72;;;;;;;;;;5115650;28;20195;-65
2023/08/14 13:14:03;;;;;;;4.35;4.05;;;;;;;;;;5115545;28;20236;-65
2023/08/14 13:16:30;;;;;;;4.32;4.03;;;;;;;;;;5114911;28;20198;-65
2023/08/14 13:18:58;;;;;;;4.40;4.10;;;;;;;;;;5115696;28;20673;-66
2023/08/14 13:21:25;;;;;;;4.45;4.15;;;;;;;;;;5115033;28;20579;-65
2023/08/14 13:23:53;;;;;;;4.43;4.13;;;;;;;;;;5115392;28;20259;-65
2023/08/14 13:26:23;;;;;;;4.70;4.30;;;;;;;;;;5116117;28;20297;-65
2023/08/14 13:28:50;;;;;;;4.63;4.25;;;;;;;;;;5115470;28;20829;-65
2023/08/14 13:31:17;;;;;;;4.47;4.07;;;;;;;;;;5115865;28;20538;-65
2023/08/14 13:33:45;;;;;;;4.32;4.03;;;;;;;;;;5101574;28;20224;-65
2023/08/14 13:36:12;;;;;;;4.80;4.40;;;;;;;;;;5095477;28;20211;-65
2023/08/14 13:38:40;;;;;;;4.50;4.18;;;;;;;;;;5095084;28;20285;-65
2023/08/14 13:41:09;;;;;;;4.38;4.07;;;;;;;;;;5094970;28;20217;-65
2023/08/14 13:43:38;;;;;;;4.32;4.03;;;;;;;;;;5094774;28;20266;-65
2023/08/14 13:46:05;;;;;;;4.50;4.10;;;;;;;;;;5094078;28;20298;-65
2023/08/14 13:48:33;;;;;;;4.72;4.32;;;;;;;;;;5094544;28;20217;-65
2023/08/14 13:51:00;;;;;;;4.72;4.32;;;;;;;;;;5094300;28;20211;-66
2023/08/14 13:53:28;;;;;;;4.57;4.18;;;;;;;;;;5094326;28;20220;-66
2023/08/14 13:55:55;;;;;;;4.20;3.90;;;;;;;;;;5094951;28;20230;-66
2023/08/14 13:58:22;;;;;;;3.90;3.60;;;;;;;;;;5094192;28;20205;-65
2023/08/14 14:00:51;;;;;;;3.83;3.53;;;;;;;;;;5095279;28;20219;-65
2023/08/14 14:03:19;;;;;;;4.03;3.72;;;;;;;;;;5094616;28;20322;-65
2023/08/14 14:05:46;;;;;;;3.72;3.42;;;;;;;;;;5094363;28;20199;-65
2023/08/14 14:08:13;;;;;;;3.40;3.10;;;;;;;;;;5092754;28;20647;-65
2023/08/14 14:10:41;;;;;;;3.13;2.92;;;;;;;;;;5095105;28;20235;-65
2023/08/14 14:13:08;;;;;;;3.30;3.10;;;;;;;;;;5095260;28;20195;-65
2023/08/14 14:15:36;;;;;;;3.10;2.85;;;;;;;;;;5095056;28;20203;-65
2023/08/14 14:18:05;;;;;;;3.05;2.75;;;;;;;;;;5093622;28;20201;-65
2023/08/14 14:20:32;;;;;;;2.70;2.50;;;;;;;;;;5094087;28;20201;-65
2023/08/14 14:23:00;;;;;;;3.28;3.00;;;;;;;;;;5094529;28;20318;-65
2023/08/14 14:25:27;;;;;;;2.65;2.45;;;;;;;;;;5094667;28;20588;-63
2023/08/14 14:27:55;;;;;;;2.58;2.38;;;;;;;;;;5094393;28;20298;-62
2023/08/14 14:30:22;;;;;;;2.58;2.40;;;;;;;;;;5094458;28;20210;-63
2023/08/14 14:32:49;;;;;;;2.33;2.15;;;;;;;;;;5094004;28;20206;-65
2023/08/14 14:35:18;;;;;;;2.70;2.50;;;;;;;;;;5095135;28;20306;-64
2023/08/14 14:37:46;;;;;;;2.65;2.45;;;;;;;;;;5094385;28;20591;-65
2023/08/14 14:40:14;;;;;;;2.80;2.50;;;;;;;;;;5094522;28;20690;-65
2023/08/14 14:42:41;;;;;;;2.70;2.50;;;;;;;;;;5094896;28;20223;-65
2023/08/14 14:45:09;;;;;;;2.33;2.22;;;;;;;;;;5094554;28;20218;-65
2023/08/14 14:47:37;;;;;;;2.70;2.47;;;;;;;;;;5094763;28;20366;-65